Terminal Aerodrome Forecast
Issued by NWS Northern Indiana

Home | Current Version | Previous Version | Text Only | Print | Product List | Glossary Off
Versions: 1 2 3 4 5 6 7 8 9 10 11 12 13 14

475
FTUS43 KIWX 121120
TAFFWA
TAF
KFWA 121120Z 1212/1312 23008KT P6SM OVC060
     FM121700 26014KT P6SM VCSH OVC035
      TEMPO 1218/1221 3SM -SHSN OVC025
     FM122100 29017G26KT 5SM -SHSN OVC030
     FM130400 31010KT P6SM VCSH BKN035=

USA.gov is the U.S. government's official web portal to all federal, state and local government web resources and services.